Time;durP1;ratioP1;P1;durP2;ratioP2;P2;SDS_P1;SDS_P2;PMS_P1;PMS_P2;Temp;Humidity;BMP_temperature;BMP_pressure;BME280_temperature;BME280_humidity;BME280_pressure;Samples;Min_cycle;Max_cycle;Signal;HPM_P1;HPM_P2
2023/01/19 00:02:41;;;;;;;64.20;21.10;;;;;;;5.95;100.00;101004.29;105754;1295;72661;-87
2023/01/19 00:05:19;;;;;;;69.10;20.90;;;;;;;5.94;100.00;101003.39;105581;1295;74049;-87
2023/01/19 00:07:47;;;;;;;62.00;21.40;;;;;;;5.97;100.00;101008.72;105775;1295;73757;-86
2023/01/19 00:17:18;;;;;;;69.30;24.50;;;;;;;6.01;100.00;100995.27;102350;1306;61306;-87
2023/01/19 00:20:24;;;;;;;;;;;;;;;;;;;;;
2023/01/19 00:23:38;;;;;;;69.10;21.90;;;;;;;5.94;100.00;100994.34;102255;1302;72722;-87
2023/01/19 00:26:21;;;;;;;59.50;21.20;;;;;;;5.87;100.00;100992.27;100699;1316;5418688;-86
2023/01/19 00:29:36;;;;;;;;;;;;;;;;;;;;;
2023/01/19 00:47:40;;;;;;;;;;;;;;;;;;;;;
2023/01/19 00:50:18;;;;;;;65.00;20.70;;;;;;;5.93;100.00;100980.14;103127;1294;61179;-87
2023/01/19 01:07:52;;;;;;;78.70;23.80;;;;;;;6.08;100.00;100977.67;101999;1262;5359827;-87
2023/01/19 01:10:54;;;;;;;;;;;;;;;;;;;;;
2023/01/19 01:14:18;;;;;;;55.20;18.80;;;;;;;5.88;100.00;100976.34;105174;1280;74020;-87
2023/01/19 01:25:36;;;;;;;;;;;;;;;;;;;;;
2023/01/19 01:54:14;;;;;;;60.80;17.80;;;;;;;5.54;100.00;100978.41;99617;1292;5163623;-86
2023/01/19 01:57:26;;;;;;;62.60;18.30;;;;;;;5.41;100.00;100980.84;102793;1295;72537;-87
2023/01/19 02:00:27;;;;;;;61.90;19.00;;;;;;;5.29;100.00;100977.85;102810;1295;72228;-87
2023/01/19 02:03:43;;;;;;;;;;;;;;;;;;;;;
2023/01/19 02:52:13;;;;;;;;;;;;;;;;;;;;;
2023/01/19 02:55:24;;;;;;;;;;;;;;;;;;;;;
2023/01/19 03:59:22;;;;;;;50.50;15.40;;;;;;;4.76;100.00;101045.67;109304;1262;71551;-85
2023/01/19 04:03:00;;;;;;;;;;;;;;;;;;;;;
2023/01/19 08:33:24;;;;;;;43.00;14.20;;;;;;;7.31;100.00;101228.05;103703;1282;613414;-84
2023/01/19 08:35:52;;;;;;;37.90;13.40;;;;;;;7.66;100.00;101227.63;103645;1283;162183;-84
2023/01/19 08:38:17;;;;;;;37.80;13.70;;;;;;;7.73;100.00;101223.83;107022;1280;60313;-85
2023/01/19 08:40:43;;;;;;;36.40;13.40;;;;;;;7.84;100.00;101224.94;107060;1283;58284;-86
2023/01/19 08:43:13;;;;;;;41.20;14.50;;;;;;;7.92;100.00;101222.93;107294;1281;58128;-85
2023/01/19 08:45:44;;;;;;;47.00;14.30;;;;;;;8.00;100.00;101217.84;107036;1283;72800;-85
2023/01/19 08:48:09;;;;;;;40.60;14.40;;;;;;;8.08;100.00;101206.41;107290;1282;59612;-85
2023/01/19 08:50:35;;;;;;;42.40;14.40;;;;;;;8.16;100.00;101204.55;107379;1281;58190;-86
2023/01/19 08:53:03;;;;;;;43.00;14.40;;;;;;;8.25;100.00;101199.56;107265;1282;57977;-85
2023/01/19 08:55:29;;;;;;;48.50;15.20;;;;;;;8.34;100.00;101198.18;107454;1283;58059;-86
2023/01/19 08:57:58;;;;;;;34.70;11.70;;;;;;;8.48;100.00;101198.00;107304;1281;58128;-86
2023/01/19 09:00:25;;;;;;;29.90;10.20;;;;;;;8.73;100.00;101188.18;106980;1282;60076;-86
2023/01/19 09:02:51;;;;;;;29.00;10.40;;;;;;;9.04;100.00;101193.54;106781;1282;60116;-86
2023/01/19 09:05:17;;;;;;;32.80;12.00;;;;;;;9.34;100.00;101187.72;106928;1283;58135;-87
2023/01/19 09:07:45;;;;;;;25.40;10.70;;;;;;;9.44;100.00;101198.05;106904;1283;58342;-87
2023/01/19 09:10:11;;;;;;;40.10;14.00;;;;;;;9.43;100.00;101198.39;106828;1284;58312;-87
2023/01/19 09:12:37;;;;;;;36.20;14.00;;;;;;;9.41;100.00;101198.95;106797;1285;58382;-87
2023/01/19 09:15:03;;;;;;;55.20;20.00;;;;;;;9.38;100.00;101202.59;106876;1284;58126;-86
2023/01/19 09:17:29;;;;;;;56.70;21.90;;;;;;;9.38;100.00;101202.66;106435;1288;58032;-87
2023/01/19 09:19:55;;;;;;;66.40;25.00;;;;;;;9.41;100.00;101200.05;106527;1288;58183;-87
2023/01/19 09:22:20;;;;;;;58.90;22.70;;;;;;;9.47;100.00;101200.21;106434;1288;58082;-87
2023/01/19 09:24:46;;;;;;;61.00;20.80;;;;;;;9.51;100.00;101203.86;106353;1288;58116;-88
2023/01/19 09:27:11;;;;;;;64.60;24.30;;;;;;;9.48;100.00;101201.70;106494;1288;72884;-89
2023/01/19 09:29:37;;;;;;;48.50;17.80;;;;;;;9.54;100.00;101194.02;106441;1288;58063;-89
2023/01/19 09:32:02;;;;;;;44.80;16.30;;;;;;;9.57;100.00;101190.04;106308;1288;58260;-88
2023/01/19 09:34:29;;;;;;;39.00;15.30;;;;;;;9.61;100.00;101186.77;106382;1288;58340;-87
2023/01/19 09:36:55;;;;;;;39.30;13.60;;;;;;;9.69;100.00;101183.59;106436;1288;58547;-90
2023/01/19 09:39:21;;;;;;;38.30;13.90;;;;;;;9.73;100.00;101185.94;106306;1289;58140;-90
2023/01/19 09:41:55;;;;;;;39.80;14.20;;;;;;;9.79;100.00;101181.96;106220;1289;58325;-89
2023/01/19 09:44:31;;;;;;;30.10;12.40;;;;;;;9.93;100.00;101177.65;106263;1289;61965;-89
2023/01/19 09:46:57;;;;;;;35.10;11.20;;;;;;;10.15;100.00;101176.69;106260;1289;60328;-89
2023/01/19 09:49:32;;;;;;;28.90;10.00;;;;;;;10.37;100.00;101171.81;106039;1291;58536;-88
2023/01/19 09:51:58;;;;;;;29.50;9.40;;;;;;;10.63;100.00;101167.17;106025;1291;73814;-89
2023/01/19 09:54:34;;;;;;;30.20;9.60;;;;;;;10.82;100.00;101166.66;106142;1289;58559;-89
2023/01/19 09:57:00;;;;;;;25.90;9.10;;;;;;;10.98;100.00;101166.23;106260;1288;62010;-87
2023/01/19 09:59:30;;;;;;;25.50;9.60;;;;;;;11.09;100.00;101167.00;106346;1288;58278;-87
2023/01/19 10:02:14;;;;;;;26.10;10.60;;;;;;;11.17;100.00;101167.15;106337;1288;73927;-87
2023/01/19 10:04:41;;;;;;;;;;;;;;;11.27;100.00;101171.76;106470;1288;74529;-87
2023/01/19 10:07:28;;;;;;;24.20;9.30;;;;;;;11.35;100.00;101167.20;106429;1288;72537;-88
2023/01/19 10:10:20;;;;;;;29.00;8.90;;;;;;;11.45;100.00;101168.63;106520;1285;60775;-88
2023/01/19 10:12:54;;;;;;;22.20;9.20;;;;;;;11.48;100.00;101161.11;106889;1284;59039;-90
2023/01/19 10:15:36;;;;;;;20.30;8.90;;;;;;;11.54;100.00;101156.77;106857;1284;72930;-88
2023/01/19 10:18:33;;;;;;;24.10;9.50;;;;;;;11.58;100.00;101153.46;106910;1284;73375;-87
2023/01/19 10:21:38;;;;;;;21.50;9.40;;;;;;;11.64;100.00;101146.94;106729;1282;71335;-87
2023/01/19 10:24:15;;;;;;;25.30;9.40;;;;;;;11.69;100.00;101142.52;106573;1288;61957;-87
2023/01/19 10:26:56;;;;;;;21.00;9.10;;;;;;;11.77;100.00;101132.23;106562;1286;61071;-87
2023/01/19 10:29:33;;;;;;;23.50;9.20;;;;;;;11.89;100.00;101134.59;106265;1288;73014;-87
2023/01/19 10:32:12;;;;;;;28.90;10.20;;;;;;;11.95;100.00;101124.89;106182;1292;75546;-88
2023/01/19 10:35:00;;;;;;;23.80;10.90;;;;;;;12.06;100.00;101126.05;106056;1292;73617;-88
2023/01/19 10:38:04;;;;;;;22.10;9.20;;;;;;;12.21;100.00;101130.24;105702;1296;63020;-87
2023/01/19 10:40:46;;;;;;;22.10;9.50;;;;;;;12.35;100.00;101133.06;105765;1295;59919;-87
2023/01/19 10:43:33;;;;;;;24.20;9.30;;;;;;;12.42;100.00;101130.69;105701;1297;72838;-87
2023/01/19 10:46:00;;;;;;;21.10;8.90;;;;;;;12.57;100.00;101131.44;105746;1296;73455;-86
2023/01/19 10:48:46;;;;;;;24.40;8.00;;;;;;;12.73;100.00;101132.68;105722;1297;73401;-86
2023/01/19 11:05:22;;;;;;;17.00;7.70;;;;;;;13.60;100.00;101120.58;103780;1295;615030;-87
2023/01/19 11:07:48;;;;;;;18.20;7.40;;;;;;;13.64;100.00;101122.84;103826;1283;148378;-86
2023/01/19 11:10:18;;;;;;;17.50;7.20;;;;;;;13.61;100.00;101120.88;103822;1289;60405;-85
2023/01/19 11:13:01;;;;;;;20.90;7.40;;;;;;;13.60;100.00;101115.84;104235;1285;74540;-87
2023/01/19 11:15:32;;;;;;;21.80;7.40;;;;;;;13.62;100.00;101112.44;104122;1285;75084;-87
2023/01/19 11:18:07;;;;;;;16.60;7.70;;;;;;;13.68;100.00;101112.39;103774;1286;73886;-86
2023/01/19 11:20:47;;;;;;;19.50;6.90;;;;;;;13.76;100.00;101105.52;103814;1286;62852;-86
2023/01/19 11:23:13;;;;;;;18.50;6.40;;;;;;;13.86;100.00;101105.65;103762;1288;61175;-86
2023/01/19 11:25:39;;;;;;;21.10;6.10;;;;;;;13.91;100.00;101099.89;104007;1286;60424;-86
2023/01/19 11:28:05;;;;;;;17.30;5.90;;;;;;;13.85;100.00;101100.34;103841;1287;60392;-85
2023/01/19 11:30:31;;;;;;;21.90;6.20;;;;;;;13.79;100.00;101100.77;103826;1286;60424;-86
2023/01/19 11:36:30;;;;;;;21.30;7.70;;;;;;;13.73;100.00;101101.13;103487;1283;600748;-86
2023/01/19 11:39:01;;;;;;;18.20;6.70;;;;;;;13.66;100.00;101108.65;103842;1284;63447;-86
2023/01/19 11:41:47;;;;;;;20.00;7.40;;;;;;;13.58;100.00;101105.05;102865;1292;600170;-87
2023/01/19 11:44:21;;;;;;;19.20;7.20;;;;;;;13.50;100.00;101110.06;103079;1292;63505;-86
2023/01/19 11:53:05;;;;;;;22.80;6.50;;;;;;;13.38;100.00;101108.09;102942;1292;601101;-88
2023/01/19 11:56:07;;;;;;;16.70;7.10;;;;;;;13.30;100.00;101114.38;103022;1298;63413;-87
2023/01/19 11:58:49;;;;;;;16.10;6.70;;;;;;;13.33;100.00;101118.13;103472;1285;601251;-87
2023/01/19 12:01:20;;;;;;;20.30;7.40;;;;;;;13.31;100.00;101117.77;103407;1289;60483;-86
2023/01/19 12:04:26;;;;;;;16.90;7.50;;;;;;;13.23;100.00;101114.55;102925;1292;600172;-87
2023/01/19 12:06:54;;;;;;;18.70;7.20;;;;;;;13.09;100.00;101111.30;102315;1300;62354;-86
2023/01/19 12:09:44;;;;;;;19.70;8.40;;;;;;;13.05;100.00;101108.19;102858;1293;599709;-86
2023/01/19 12:17:57;;;;;;;19.40;7.60;;;;;;;12.88;100.00;101109.73;103027;1291;600602;-87
2023/01/19 12:20:37;;;;;;;18.00;6.90;;;;;;;12.82;100.00;101109.20;102940;1300;60757;-87
2023/01/19 12:23:35;;;;;;;20.50;7.30;;;;;;;12.77;100.00;101107.13;103142;1292;61911;-86
2023/01/19 12:26:54;;;;;;;24.00;7.90;;;;;;;12.70;100.00;101110.10;102970;1294;600408;-87
2023/01/19 12:29:23;;;;;;;20.20;7.40;;;;;;;12.55;100.00;101116.34;102806;1298;63002;-89
2023/01/19 12:32:15;;;;;;;19.40;7.90;;;;;;;12.51;100.00;101115.28;103303;1292;60796;-87
2023/01/19 12:35:07;;;;;;;17.20;8.40;;;;;;;12.46;100.00;101126.28;103243;1297;73537;-86
2023/01/19 12:37:49;;;;;;;19.10;7.40;;;;;;;12.46;100.00;101132.45;103242;1294;600210;-87
2023/01/19 12:40:22;;;;;;;21.30;7.70;;;;;;;12.41;100.00;101133.58;106010;1295;58391;-87
2023/01/19 12:43:14;;;;;;;17.20;7.30;;;;;;;12.35;100.00;101131.48;106038;1294;60314;-89
2023/01/19 12:45:44;;;;;;;31.50;12.60;;;;;;;12.24;100.00;101133.52;106153;1294;72093;-87
2023/01/19 12:48:25;;;;;;;152.20;59.70;;;;;;;12.18;100.00;101134.43;105783;1295;76189;-87
2023/01/19 12:50:50;;;;;;;97.50;35.20;;;;;;;12.13;100.00;101137.80;105666;1292;268219;-88
2023/01/19 12:53:20;;;;;;;173.10;70.50;;;;;;;12.10;100.00;101139.06;106033;1292;58329;-88
2023/01/19 12:55:58;;;;;;;47.00;20.30;;;;;;;12.12;100.00;101137.90;106203;1290;59992;-89
2023/01/19 12:58:24;;;;;;;24.10;10.40;;;;;;;12.15;100.00;101140.14;106203;1291;72136;-91
2023/01/19 13:01:15;;;;;;;26.90;11.10;;;;;;;12.17;100.00;101136.48;106183;1291;58316;-87
2023/01/19 13:03:43;;;;;;;20.70;8.10;;;;;;;12.20;100.00;101140.06;106196;1292;73514;-88
2023/01/19 13:06:09;;;;;;;16.70;7.20;;;;;;;12.23;100.00;101135.48;105687;1297;61909;-88
2023/01/19 13:08:59;;;;;;;20.50;7.30;;;;;;;12.20;100.00;101138.83;105732;1299;58215;-87
2023/01/19 13:11:25;;;;;;;41.00;18.00;;;;;;;12.14;100.00;101142.81;105455;1301;72094;-87
2023/01/19 13:14:05;;;;;;;25.20;10.50;;;;;;;12.06;100.00;101141.52;105421;1300;58248;-87
2023/01/19 13:16:33;;;;;;;23.30;8.60;;;;;;;11.97;100.00;101143.53;105497;1300;73334;-87
2023/01/19 13:19:05;;;;;;;27.50;12.40;;;;;;;11.87;100.00;101145.69;105536;1300;60816;-90
2023/01/19 13:21:37;;;;;;;18.00;8.00;;;;;;;11.78;100.00;101137.96;105625;1299;60123;-89
2023/01/19 13:24:04;;;;;;;24.30;10.60;;;;;;;11.68;100.00;101135.44;105582;1299;73970;-88
2023/01/19 13:26:41;;;;;;;48.70;20.00;;;;;;;11.58;100.00;101137.86;105484;1300;73583;-88
2023/01/19 13:29:16;;;;;;;32.80;12.20;;;;;;;11.49;100.00;101133.92;105428;1300;73549;-88
2023/01/19 13:31:43;;;;;;;24.40;9.20;;;;;;;11.36;100.00;101134.74;105468;1300;60880;-89
2023/01/19 13:34:15;;;;;;;28.70;9.90;;;;;;;11.23;100.00;101140.30;105307;1300;60280;-88
2023/01/19 13:36:53;;;;;;;25.20;8.60;;;;;;;11.12;100.00;101147.45;105455;1296;73067;-89
2023/01/19 13:39:26;;;;;;;21.00;8.70;;;;;;;11.04;100.00;101143.40;105622;1298;74355;-89
2023/01/19 13:41:54;;;;;;;23.60;9.50;;;;;;;10.93;100.00;101142.08;105667;1294;73489;-88
2023/01/19 13:44:25;;;;;;;20.50;8.20;;;;;;;10.87;100.00;101150.89;105830;1294;61667;-89
2023/01/19 13:46:52;;;;;;;20.20;8.00;;;;;;;10.80;100.00;101149.37;105951;1294;61136;-89
2023/01/19 13:49:35;;;;;;;20.90;8.50;;;;;;;10.76;100.00;101155.09;105657;1294;71618;-89
2023/01/19 13:52:18;;;;;;;;;;;;;;;10.69;100.00;101149.21;105944;1294;74185;-89
2023/01/19 13:54:51;;;;;;;25.30;9.60;;;;;;;10.64;100.00;101152.20;105845;1295;72551;-90
2023/01/19 13:57:44;;;;;;;23.40;9.00;;;;;;;10.56;100.00;101147.23;106048;1292;62755;-88
2023/01/19 14:00:15;;;;;;;24.30;8.80;;;;;;;10.46;100.00;101150.79;105798;1299;59867;-88
2023/01/19 14:02:55;;;;;;;20.90;8.00;;;;;;;10.37;100.00;101155.39;105695;1299;72928;-88
2023/01/19 14:05:25;;;;;;;30.30;10.90;;;;;;;10.30;100.00;101156.58;105683;1299;73751;-89
2023/01/19 14:08:12;;;;;;;23.00;8.80;;;;;;;10.23;100.00;101156.17;105536;1300;72547;-89
2023/01/19 14:10:44;;;;;;;24.80;9.20;;;;;;;10.15;100.00;101160.16;105559;1297;61321;-90
2023/01/19 14:13:19;;;;;;;25.20;9.00;;;;;;;10.08;100.00;101158.59;105599;1297;60204;-90
2023/01/19 14:15:46;;;;;;;29.00;9.40;;;;;;;9.98;100.00;101160.30;105724;1297;74166;-90
2023/01/19 14:18:15;;;;;;;20.50;8.40;;;;;;;9.89;100.00;101159.77;105704;1297;74275;-90
2023/01/19 14:20:50;;;;;;;28.20;9.60;;;;;;;9.80;100.00;101164.85;105771;1297;72664;-90
2023/01/19 14:23:37;;;;;;;22.40;8.30;;;;;;;9.72;100.00;101167.58;105439;1300;61121;-91
2023/01/19 14:26:02;;;;;;;22.60;9.20;;;;;;;9.61;100.00;101164.33;105463;1300;61085;-91
2023/01/19 14:28:38;;;;;;;32.10;10.20;;;;;;;9.52;100.00;101165.60;105411;1300;58228;-91
2023/01/19 14:31:17;;;;;;;23.00;9.40;;;;;;;9.40;100.00;101172.84;105420;1300;74768;-90
2023/01/19 14:33:45;;;;;;;24.00;9.70;;;;;;;9.29;100.00;101174.50;105478;1300;73518;-92
2023/01/19 14:36:13;;;;;;;24.00;9.00;;;;;;;9.18;100.00;101180.55;105448;1300;60830;-89
2023/01/19 14:38:47;;;;;;;25.00;9.10;;;;;;;9.09;100.00;101177.86;106112;1292;61197;-91
2023/01/19 14:41:41;;;;;;;26.90;9.80;;;;;;;9.01;100.00;101179.16;106039;1291;73989;-89
2023/01/19 14:44:09;;;;;;;26.60;9.70;;;;;;;8.92;100.00;101179.71;106167;1291;73309;-90
2023/01/19 14:46:35;;;;;;;26.60;9.70;;;;;;;8.81;100.00;101183.94;106095;1290;72555;-91
2023/01/19 14:49:04;;;;;;;24.60;9.70;;;;;;;8.75;100.00;101185.71;106039;1291;58185;-90
2023/01/19 14:51:30;;;;;;;26.40;10.30;;;;;;;8.67;100.00;101187.73;106134;1292;60563;-90
2023/01/19 14:54:00;;;;;;;29.20;10.20;;;;;;;8.60;100.00;101186.70;106030;1293;58101;-91
2023/01/19 14:56:31;;;;;;;26.70;9.40;;;;;;;8.54;100.00;101189.23;105910;1292;72319;-91
2023/01/19 14:58:58;;;;;;;27.40;9.70;;;;;;;8.47;100.00;101191.91;105928;1293;72667;-90
2023/01/19 15:01:29;;;;;;;26.90;10.00;;;;;;;8.40;100.00;101193.46;106089;1292;61054;-90
2023/01/19 15:03:58;;;;;;;31.20;10.50;;;;;;;8.38;100.00;101192.38;106251;1292;59216;-89
2023/01/19 15:06:25;;;;;;;26.70;9.70;;;;;;;8.33;100.00;101193.79;106232;1290;73667;-91
2023/01/19 15:08:54;;;;;;;26.00;10.20;;;;;;;8.28;100.00;101198.48;106169;1291;73550;-90
2023/01/19 15:11:28;;;;;;;29.80;11.20;;;;;;;8.23;100.00;101203.32;106090;1290;73594;-91
2023/01/19 15:13:54;;;;;;;27.30;10.90;;;;;;;8.18;100.00;101210.77;106079;1295;60821;-88
2023/01/19 15:16:21;;;;;;;29.90;10.90;;;;;;;8.11;100.00;101219.59;106239;1292;58369;-86
2023/01/19 15:18:47;;;;;;;31.50;11.80;;;;;;;8.05;100.00;101230.81;105947;1295;58156;-86
2023/01/19 15:21:22;;;;;;;26.40;10.60;;;;;;;8.01;100.00;101232.52;105851;1293;58138;-86
2023/01/19 15:23:48;;;;;;;30.40;11.50;;;;;;;7.98;100.00;101237.61;105990;1292;73680;-86
2023/01/19 15:26:19;;;;;;;28.30;10.70;;;;;;;7.92;100.00;101239.20;105918;1295;58691;-86
2023/01/19 15:28:47;;;;;;;31.10;10.60;;;;;;;7.88;100.00;101239.05;106096;1292;61105;-86
2023/01/19 15:31:18;;;;;;;28.80;10.50;;;;;;;7.85;100.00;101235.37;106019;1293;73877;-86
2023/01/19 15:36:30;;;;;;;35.90;13.30;;;;;;;7.76;100.00;101241.39;105711;1298;74202;-86
2023/01/19 15:38:55;;;;;;;37.40;12.90;;;;;;;7.74;100.00;101239.67;105590;1298;58161;-86
2023/01/19 15:41:26;;;;;;;38.00;13.20;;;;;;;7.69;100.00;101242.05;105699;1298;58220;-85
2023/01/19 15:43:52;;;;;;;29.10;11.30;;;;;;;7.66;100.00;101247.11;105704;1301;72827;-86
2023/01/19 15:46:21;;;;;;;43.70;14.80;;;;;;;7.62;100.00;101245.39;105717;1297;58213;-87
2023/01/19 15:48:49;;;;;;;38.80;12.30;;;;;;;7.59;100.00;101253.71;105704;1297;73341;-86
2023/01/19 15:51:17;;;;;;;36.70;12.40;;;;;;;7.57;100.00;101256.63;105776;1295;60971;-85
2023/01/19 15:53:43;;;;;;;32.70;12.70;;;;;;;7.55;100.00;101251.98;105793;1295;60118;-85
2023/01/19 15:56:24;;;;;;;32.60;11.60;;;;;;;7.52;100.00;101249.50;105827;1295;58155;-87
2023/01/19 15:58:51;;;;;;;32.40;11.40;;;;;;;7.47;100.00;101246.04;105791;1295;74613;-86
2023/01/19 16:01:20;;;;;;;30.60;12.00;;;;;;;7.44;100.00;101243.20;105833;1296;73677;-86
2023/01/19 16:03:46;;;;;;;32.90;11.50;;;;;;;7.38;100.00;101246.52;105801;1295;62091;-86
2023/01/19 16:06:15;;;;;;;36.00;12.40;;;;;;;7.37;100.00;101253.33;105740;1298;58033;-86
2023/01/19 16:08:41;;;;;;;31.70;12.20;;;;;;;7.35;100.00;101257.98;106098;1289;72916;-86
2023/01/19 16:11:11;;;;;;;33.70;12.60;;;;;;;7.29;100.00;101260.34;106366;1286;58177;-85
2023/01/19 16:13:38;;;;;;;34.30;11.70;;;;;;;7.27;100.00;101263.09;106565;1286;72355;-85
2023/01/19 16:16:05;;;;;;;32.90;12.50;;;;;;;7.25;100.00;101267.48;106271;1289;58329;-86
2023/01/19 16:18:31;;;;;;;34.50;12.20;;;;;;;7.24;100.00;101265.30;106307;1289;60321;-86
2023/01/19 16:20:57;;;;;;;36.20;12.80;;;;;;;7.24;100.00;101266.09;106378;1288;58074;-85
2023/01/19 16:23:22;;;;;;;37.00;13.80;;;;;;;7.21;100.00;101265.48;106260;1289;58333;-86
2023/01/19 16:25:56;;;;;;;34.40;12.30;;;;;;;7.14;100.00;101269.05;106342;1290;58276;-86
2023/01/19 16:28:22;;;;;;;37.50;13.10;;;;;;;7.09;100.00;101271.87;106243;1289;59815;-86
2023/01/19 16:30:48;;;;;;;35.70;12.80;;;;;;;7.05;100.00;101273.25;106169;1295;58154;-87
2023/01/19 16:33:13;;;;;;;35.40;13.50;;;;;;;7.00;100.00;101276.23;106234;1289;58199;-85
2023/01/19 16:35:39;;;;;;;33.90;12.70;;;;;;;6.96;100.00;101283.36;106346;1289;58451;-86
2023/01/19 16:38:05;;;;;;;32.70;12.90;;;;;;;6.94;100.00;101279.13;106480;1289;58179;-86
2023/01/19 16:40:31;;;;;;;36.30;13.60;;;;;;;6.90;100.00;101277.81;106437;1287;58720;-86
2023/01/19 16:42:57;;;;;;;39.60;13.60;;;;;;;6.84;100.00;101279.33;106388;1289;72796;-85
2023/01/19 16:45:22;;;;;;;40.70;15.50;;;;;;;6.80;100.00;101280.43;106533;1288;58121;-86
2023/01/19 16:47:50;;;;;;;38.60;14.30;;;;;;;6.76;100.00;101280.99;106127;1286;58193;-87
2023/01/19 16:50:16;;;;;;;39.00;13.40;;;;;;;6.72;100.00;101284.57;106684;1288;60011;-86
2023/01/19 16:52:42;;;;;;;35.20;12.60;;;;;;;6.68;100.00;101285.83;106710;1285;58234;-86
2023/01/19 16:55:10;;;;;;;40.70;13.90;;;;;;;6.64;100.00;101288.70;106787;1285;58195;-86
2023/01/19 16:57:39;;;;;;;38.70;13.90;;;;;;;6.57;100.00;101290.20;106530;1286;74499;-85
2023/01/19 17:00:07;;;;;;;37.50;13.80;;;;;;;6.50;100.00;101294.77;106539;1286;73530;-85
2023/01/19 17:02:33;;;;;;;35.10;13.40;;;;;;;6.45;100.00;101296.03;106547;1286;61780;-84
2023/01/19 17:05:01;;;;;;;47.60;14.30;;;;;;;6.41;100.00;101299.11;106574;1286;58590;-85
2023/01/19 17:07:27;;;;;;;36.80;13.40;;;;;;;6.34;100.00;101296.96;106774;1285;74338;-83
2023/01/19 17:09:53;;;;;;;35.50;13.60;;;;;;;6.30;100.00;101301.55;106410;1285;58336;-84
2023/01/19 17:12:18;;;;;;;35.90;13.80;;;;;;;6.23;100.00;101299.07;106795;1285;58502;-85
2023/01/19 17:14:46;;;;;;;39.50;13.80;;;;;;;6.19;100.00;101300.25;106540;1286;58467;-83
2023/01/19 17:17:12;;;;;;;42.50;15.00;;;;;;;6.14;100.00;101306.98;106806;1285;58264;-84
2023/01/19 17:19:38;;;;;;;42.20;14.30;;;;;;;6.11;100.00;101306.95;106414;1287;58277;-84
2023/01/19 17:22:05;;;;;;;42.00;14.80;;;;;;;6.10;100.00;101309.84;106415;1286;58743;-83
2023/01/19 17:24:31;;;;;;;42.90;15.10;;;;;;;6.09;100.00;101306.64;106449;1286;58352;-84
2023/01/19 17:26:57;;;;;;;41.70;14.30;;;;;;;6.10;100.00;101310.91;106334;1286;58540;-84
2023/01/19 17:29:23;;;;;;;38.90;13.60;;;;;;;6.11;100.00;101312.51;106667;1286;58275;-82
2023/01/19 17:31:51;;;;;;;38.90;13.80;;;;;;;6.11;100.00;101310.21;106280;1291;58422;-85
2023/01/19 17:34:17;;;;;;;35.90;13.70;;;;;;;6.11;100.00;101311.81;106196;1291;58700;-84
2023/01/19 17:36:43;;;;;;;35.90;13.00;;;;;;;6.10;100.00;101310.09;106227;1290;58362;-85
2023/01/19 17:39:13;;;;;;;36.80;13.90;;;;;;;6.08;100.00;101307.41;106289;1291;58307;-86
2023/01/19 17:41:39;;;;;;;39.70;14.70;;;;;;;6.06;100.00;101305.16;106221;1291;60103;-85
2023/01/19 17:44:09;;;;;;;38.50;13.60;;;;;;;6.08;100.00;101309.64;106088;1291;74014;-83
2023/01/19 17:46:38;;;;;;;41.50;13.80;;;;;;;6.08;100.00;101307.13;105842;1292;73972;-83
2023/01/19 17:49:06;;;;;;;39.80;15.00;;;;;;;6.07;100.00;101309.06;106175;1290;72307;-84
2023/01/19 17:51:32;;;;;;;43.30;14.10;;;;;;;6.04;100.00;101309.58;106179;1288;60979;-84
2023/01/19 17:53:58;;;;;;;42.10;13.30;;;;;;;6.01;100.00;101317.52;106323;1288;58281;-85
2023/01/19 17:56:28;;;;;;;34.30;13.10;;;;;;;5.98;100.00;101319.98;106271;1288;58400;-84
2023/01/19 17:58:55;;;;;;;48.50;14.00;;;;;;;5.94;100.00;101320.84;106327;1288;74547;-84
2023/01/19 18:01:29;;;;;;;43.40;13.90;;;;;;;5.90;100.00;101324.13;106313;1288;73348;-84
2023/01/19 18:03:59;;;;;;;35.50;13.90;;;;;;;5.87;100.00;101323.28;106382;1287;59723;-84
2023/01/19 18:06:25;;;;;;;39.90;14.80;;;;;;;5.84;100.00;101317.27;106157;1288;60234;-84
2023/01/19 18:08:53;;;;;;;35.80;13.60;;;;;;;5.81;100.00;101316.04;106466;1288;58394;-85
2023/01/19 18:11:20;;;;;;;35.50;13.40;;;;;;;5.80;100.00;101318.30;106773;1285;74368;-83
2023/01/19 18:13:49;;;;;;;36.00;13.10;;;;;;;5.76;100.00;101321.60;106689;1286;73407;-84
2023/01/19 18:16:19;;;;;;;34.50;12.50;;;;;;;5.74;100.00;101324.45;106437;1286;60823;-83
2023/01/19 18:18:44;;;;;;;38.00;14.20;;;;;;;5.73;100.00;101324.33;106497;1286;61010;-84
2023/01/19 18:21:13;;;;;;;40.20;13.60;;;;;;;5.72;100.00;101325.89;106832;1285;58382;-82
2023/01/19 18:23:44;;;;;;;35.90;13.40;;;;;;;5.69;100.00;101326.76;106709;1286;74409;-81
2023/01/19 18:26:19;;;;;;;33.70;13.00;;;;;;;5.68;100.00;101330.55;106825;1285;72474;-83
2023/01/19 18:28:46;;;;;;;41.30;13.00;;;;;;;5.65;100.00;101329.90;106655;1286;61873;-82
2023/01/19 18:31:14;;;;;;;37.90;13.40;;;;;;;5.64;100.00;101321.84;106689;1286;60974;-82
2023/01/19 18:33:41;;;;;;;35.80;13.90;;;;;;;5.63;100.00;101323.98;106867;1285;73758;-82
2023/01/19 18:36:08;;;;;;;31.00;12.80;;;;;;;5.63;100.00;101321.92;106662;1286;74325;-82
2023/01/19 18:38:35;;;;;;;34.70;13.60;;;;;;;5.64;100.00;101318.75;106534;1286;73724;-82
2023/01/19 18:41:08;;;;;;;37.70;13.10;;;;;;;5.62;100.00;101320.73;106558;1285;61138;-82
2023/01/19 18:43:34;;;;;;;48.30;17.80;;;;;;;5.59;100.00;101326.04;106794;1285;59897;-82
2023/01/19 18:46:20;;;;;;;56.20;19.20;;;;;;;5.59;100.00;101325.66;106843;1285;58259;-82
2023/01/19 18:48:46;;;;;;;44.30;16.70;;;;;;;5.56;100.00;101329.34;106555;1288;74452;-83
2023/01/19 18:51:15;;;;;;;42.20;15.30;;;;;;;5.55;100.00;101332.18;106494;1287;58421;-81
2023/01/19 18:53:41;;;;;;;52.20;18.90;;;;;;;5.54;100.00;101336.78;106490;1287;61901;-82
2023/01/19 18:56:07;;;;;;;48.80;16.90;;;;;;;5.52;100.00;101340.21;106317;1288;58307;-82
2023/01/19 18:58:36;;;;;;;51.80;17.70;;;;;;;5.52;100.00;101341.02;106395;1289;58394;-82
2023/01/19 19:01:03;;;;;;;53.20;19.00;;;;;;;5.52;100.00;101341.27;106296;1289;73139;-82
2023/01/19 19:03:30;;;;;;;50.00;16.60;;;;;;;5.50;100.00;101342.30;106532;1287;58385;-82
2023/01/19 19:06:00;;;;;;;45.00;15.40;;;;;;;5.50;100.00;101348.73;106408;1288;59976;-82
2023/01/19 19:08:27;;;;;;;45.00;16.10;;;;;;;5.48;100.00;101342.73;106579;1287;61044;-82
2023/01/19 19:11:13;;;;;;;49.60;16.90;;;;;;;5.47;100.00;101346.30;106522;1288;74678;-82
2023/01/19 19:13:39;;;;;;;46.50;15.60;;;;;;;5.44;100.00;101344.00;106168;1291;74236;-83
2023/01/19 19:16:07;;;;;;;55.40;18.30;;;;;;;5.42;100.00;101349.95;106225;1291;73582;-82
2023/01/19 19:18:36;;;;;;;53.00;17.00;;;;;;;5.40;100.00;101351.98;106149;1291;60902;-82
2023/01/19 19:21:10;;;;;;;47.10;17.10;;;;;;;5.38;100.00;101347.13;106282;1289;60864;-82
2023/01/19 19:23:36;;;;;;;57.20;18.00;;;;;;;5.34;100.00;101340.52;106150;1292;74460;-82
2023/01/19 19:26:04;;;;;;;53.90;17.80;;;;;;;5.31;100.00;101335.05;106247;1291;74466;-82
2023/01/19 19:28:29;;;;;;;49.10;16.70;;;;;;;5.29;100.00;101339.57;106263;1291;73572;-82
2023/01/19 19:31:28;;;;;;;51.30;18.40;;;;;;;5.25;100.00;101334.56;106137;1292;58247;-82
2023/01/19 19:33:57;;;;;;;50.80;17.80;;;;;;;5.25;100.00;101343.14;106032;1294;60088;-82
2023/01/19 19:36:24;;;;;;;48.50;17.40;;;;;;;5.26;100.00;101342.65;105862;1294;72332;-82
2023/01/19 19:38:50;;;;;;;53.10;16.80;;;;;;;5.26;100.00;101340.88;106010;1294;73521;-82
2023/01/19 19:41:25;;;;;;;62.10;18.70;;;;;;;5.28;100.00;101345.08;105496;1297;71259;-82
2023/01/19 19:43:51;;;;;;;52.00;17.70;;;;;;;5.30;100.00;101347.34;105402;1300;60104;-82